createdAt,value
2019-03-11T00:00:31.765Z,67.68
2019-03-11T00:03:02.220Z,68.82
2019-03-11T00:05:32.623Z,68.79
2019-03-11T00:08:03.087Z,68.47
2019-03-11T00:10:33.526Z,68.90
2019-03-11T00:13:04.025Z,68.52
2019-03-11T00:15:34.427Z,68.23
2019-03-11T00:18:04.910Z,67.90
2019-03-11T00:20:35.324Z,67.48
2019-03-11T00:23:05.796Z,67.31
2019-03-11T00:25:36.114Z,68.07
2019-03-11T00:28:06.492Z,67.66
2019-03-11T00:30:36.805Z,68.15
2019-03-11T00:33:07.160Z,69.21
2019-03-11T00:35:37.458Z,68.46
2019-03-11T00:38:07.770Z,68.46
2019-03-11T00:40:38.209Z,68.27
2019-03-11T00:43:08.518Z,68.70
2019-03-11T00:45:38.878Z,68.78
2019-03-11T00:48:09.168Z,68.29
2019-03-11T00:50:39.513Z,67.13
2019-03-11T00:53:09.792Z,65.00
2019-03-11T00:55:40.137Z,64.70
2019-03-11T00:58:10.357Z,64.45
2019-03-11T01:00:40.921Z,65.29
2019-03-11T01:03:11.221Z,65.09
2019-03-11T01:05:41.676Z,65.06
2019-03-11T01:08:11.967Z,65.36
2019-03-11T01:10:42.312Z,66.27
2019-03-11T01:13:12.626Z,64.55
2019-03-11T01:15:42.998Z,65.30
2019-03-11T01:18:13.286Z,65.59
2019-03-11T01:20:43.633Z,65.04
2019-03-11T01:23:13.934Z,65.30
2019-03-11T01:25:44.282Z,65.78
2019-03-11T01:28:14.570Z,65.74
2019-03-11T01:30:44.930Z,65.97
2019-03-11T01:33:15.308Z,66.81
2019-03-11T01:35:45.752Z,66.08
2019-03-11T01:38:16.150Z,66.33
2019-03-11T01:40:46.613Z,66.91
2019-03-11T01:43:17.017Z,67.33
2019-03-11T01:45:47.485Z,67.79
2019-03-11T01:48:17.873Z,68.39
2019-03-11T01:50:48.316Z,67.71
2019-03-11T01:53:18.723Z,68.28
2019-03-11T01:55:49.198Z,68.11
2019-03-11T01:58:19.592Z,68.22
2019-03-11T02:00:50.068Z,67.77
2019-03-11T02:03:20.490Z,67.76
2019-03-11T02:05:50.938Z,67.67
2019-03-11T02:08:21.354Z,68.27
2019-03-11T02:10:51.826Z,68.95
2019-03-11T02:13:22.254Z,69.51
2019-03-11T02:15:52.699Z,69.89
2019-03-11T02:18:23.105Z,70.56
2019-03-11T02:20:53.576Z,68.95
2019-03-11T02:23:23.983Z,69.11
2019-03-11T02:25:54.447Z,69.42
2019-03-11T02:28:24.860Z,69.46
2019-03-11T02:30:55.328Z,69.48
2019-03-11T02:33:25.722Z,70.10
2019-03-11T02:35:56.226Z,69.91
2019-03-11T02:38:26.537Z,70.30
2019-03-11T02:40:56.990Z,69.76
2019-03-11T02:43:27.282Z,68.74
2019-03-11T02:45:57.715Z,69.16
2019-03-11T02:48:28.008Z,68.53
2019-03-11T02:50:58.367Z,67.52
2019-03-11T02:53:28.662Z,67.67
2019-03-11T02:55:59.039Z,67.26
2019-03-11T02:58:29.331Z,65.93
2019-03-11T03:01:08.679Z,65.64
2019-03-11T03:03:40.550Z,65.33
2019-03-11T03:06:15.598Z,65.33
2019-03-11T03:08:46.088Z,65.66
2019-03-11T03:11:16.538Z,64.97
2019-03-11T03:13:46.948Z,66.30
2019-03-11T03:16:17.378Z,66.34
2019-03-11T03:18:47.783Z,66.19
2019-03-11T03:21:18.213Z,65.92
2019-03-11T03:23:48.500Z,65.68
2019-03-11T03:26:18.861Z,66.03
2019-03-11T03:28:49.169Z,65.69
2019-03-11T03:31:19.488Z,65.41
2019-03-11T03:33:49.805Z,65.69
2019-03-11T03:36:20.134Z,65.53
2019-03-11T03:38:50.446Z,65.01
2019-03-11T03:41:20.897Z,65.70
2019-03-11T03:43:51.110Z,65.05
2019-03-11T03:46:21.460Z,64.38
2019-03-11T03:48:51.771Z,64.48
2019-03-11T03:51:22.240Z,64.12
2019-03-11T03:53:52.520Z,63.14
2019-03-11T03:56:22.843Z,61.97
2019-03-11T03:58:53.118Z,63.29
2019-03-11T04:01:23.466Z,62.25
2019-03-11T04:03:53.775Z,61.82
2019-03-11T04:06:24.133Z,62.96
2019-03-11T04:08:54.455Z,62.62
2019-03-11T04:11:24.808Z,61.23
2019-03-11T04:13:55.099Z,61.32
2019-03-11T04:16:25.524Z,61.07
2019-03-11T04:18:56.690Z,62.37
2019-03-11T04:21:27.035Z,62.38
2019-03-11T04:23:57.331Z,61.00
2019-03-11T04:26:30.503Z,60.77
2019-03-11T04:29:00.822Z,60.55
2019-03-11T04:31:31.157Z,60.46
2019-03-11T04:34:01.485Z,58.88
2019-03-11T04:36:31.849Z,58.86
2019-03-11T04:39:02.149Z,58.96
2019-03-11T04:41:32.599Z,58.71
2019-03-11T04:44:02.894Z,58.38
2019-03-11T04:46:33.341Z,58.84
2019-03-11T04:49:03.646Z,58.50
2019-03-11T04:51:33.996Z,58.41
2019-03-11T04:54:04.289Z,60.07
2019-03-11T04:56:34.654Z,60.24
2019-03-11T04:59:12.856Z,61.12
2019-03-11T05:01:43.204Z,61.43
2019-03-11T05:04:13.492Z,61.78
2019-03-11T05:06:43.817Z,62.34
2019-03-11T05:09:14.093Z,62.07
2019-03-11T05:11:44.436Z,62.88
2019-03-11T05:14:14.754Z,62.75
2019-03-11T05:16:45.106Z,62.81
2019-03-11T05:19:15.385Z,62.64
2019-03-11T05:21:45.740Z,62.85
2019-03-11T05:24:16.041Z,63.19
2019-03-11T05:26:47.949Z,62.87
2019-03-11T05:29:18.197Z,62.80
2019-03-11T05:31:48.545Z,62.86
2019-03-11T05:34:18.843Z,62.75
2019-03-11T05:36:49.176Z,62.28
2019-03-11T05:39:19.469Z,62.42
2019-03-11T05:41:50.337Z,62.31
2019-03-11T05:44:20.660Z,62.58
2019-03-11T05:46:50.999Z,63.24
2019-03-11T05:49:21.305Z,62.74
2019-03-11T05:51:51.888Z,62.59
2019-03-11T05:54:22.189Z,62.81
2019-03-11T05:56:52.557Z,63.63
2019-03-11T05:59:22.853Z,63.75
2019-03-11T06:01:53.216Z,63.67
2019-03-11T06:04:23.542Z,63.28
2019-03-11T06:06:53.885Z,62.88
2019-03-11T06:09:24.184Z,62.77
2019-03-11T06:11:54.794Z,62.68
2019-03-11T06:14:25.097Z,63.35
2019-03-11T06:16:55.476Z,63.63
2019-03-11T06:19:25.797Z,63.42
2019-03-11T06:21:57.725Z,63.35
2019-03-11T06:24:30.485Z,63.93
2019-03-11T06:27:00.127Z,63.24
2019-03-11T06:29:31.030Z,63.58
2019-03-11T06:32:01.482Z,63.36
2019-03-11T06:34:31.819Z,62.46
2019-03-11T06:37:02.186Z,62.07
2019-03-11T06:39:32.493Z,62.05
2019-03-11T06:42:03.275Z,61.47
2019-03-11T06:44:33.597Z,61.38
2019-03-11T06:47:04.059Z,60.20
2019-03-11T06:49:34.388Z,59.54
2019-03-11T06:52:04.742Z,59.66
2019-03-11T06:54:35.073Z,59.22
2019-03-11T06:57:05.432Z,59.68
2019-03-11T06:59:35.761Z,58.14
2019-03-11T07:02:06.109Z,59.13
2019-03-11T07:04:36.421Z,58.37
2019-03-11T07:07:06.816Z,57.54
2019-03-11T07:09:37.171Z,57.93
2019-03-11T07:12:08.825Z,57.63
2019-03-11T07:14:39.158Z,57.29
2019-03-11T07:17:09.497Z,57.17
2019-03-11T07:19:39.797Z,56.87
2019-03-11T07:22:10.155Z,57.18
2019-03-11T07:24:40.444Z,56.96
2019-03-11T07:27:10.730Z,58.15
2019-03-11T07:29:41.047Z,57.95
2019-03-11T07:32:11.441Z,59.31
2019-03-11T07:34:41.706Z,59.56
2019-03-11T07:37:12.164Z,59.91
2019-03-11T07:39:42.411Z,59.78
2019-03-11T07:42:12.821Z,59.31
2019-03-11T07:44:43.111Z,59.59
2019-03-11T07:47:13.445Z,59.44
2019-03-11T07:49:43.765Z,59.80
2019-03-11T07:52:14.099Z,59.48
2019-03-11T07:54:44.355Z,59.40
2019-03-11T07:57:14.717Z,59.53
2019-03-11T07:59:45.020Z,60.15
2019-03-11T08:02:15.320Z,59.86
2019-03-11T08:04:45.605Z,60.51
2019-03-11T08:07:15.939Z,60.42
2019-03-11T08:09:46.343Z,60.30
2019-03-11T08:12:16.837Z,61.10
2019-03-11T08:14:47.138Z,60.83
2019-03-11T08:17:17.467Z,61.55
2019-03-11T08:19:47.805Z,62.22
2019-03-11T08:22:18.769Z,62.24
2019-03-11T08:24:49.136Z,62.82
2019-03-11T08:27:19.560Z,62.56
2019-03-11T08:29:49.949Z,62.87
2019-03-11T08:32:20.396Z,63.58
2019-03-11T08:34:50.916Z,64.63
2019-03-11T08:37:27.008Z,63.07
2019-03-11T08:39:54.495Z,63.81
2019-03-11T08:42:24.975Z,63.20
2019-03-11T08:44:55.285Z,63.52
2019-03-11T08:47:25.651Z,63.79
2019-03-11T08:49:55.956Z,64.07
2019-03-11T08:52:26.434Z,63.41
2019-03-11T08:54:57.265Z,63.77
2019-03-11T08:57:27.843Z,63.75
2019-03-11T08:59:58.358Z,64.25
2019-03-11T09:02:31.019Z,64.48
2019-03-11T09:05:01.354Z,64.25
2019-03-11T09:07:31.738Z,64.22
2019-03-11T09:10:02.214Z,64.47
2019-03-11T09:12:32.802Z,64.45
2019-03-11T09:15:03.733Z,64.92
2019-03-11T09:17:35.971Z,64.62
2019-03-11T09:20:09.033Z,65.05
2019-03-11T09:22:43.479Z,65.87
2019-03-11T09:25:23.304Z,66.30
2019-03-11T09:27:54.923Z,67.46
2019-03-11T09:30:25.877Z,69.05
2019-03-11T09:32:56.497Z,68.62
2019-03-11T09:35:26.946Z,69.00
2019-03-11T09:37:57.388Z,68.89
2019-03-11T09:40:27.776Z,69.37
2019-03-11T09:43:17.523Z,68.58
2019-03-11T09:45:57.464Z,68.31
2019-03-11T09:48:58.373Z,68.35
2019-03-11T09:51:49.986Z,68.40
2019-03-11T09:54:37.573Z,68.11
2019-03-11T10:00:43.008Z,67.82
2019-03-11T10:03:13.343Z,66.88
2019-03-11T10:05:43.837Z,67.92
2019-03-11T10:08:14.282Z,67.88
2019-03-11T10:10:44.782Z,67.29
2019-03-11T10:13:15.172Z,67.10
2019-03-11T10:15:45.646Z,67.12
2019-03-11T10:18:16.441Z,66.02
2019-03-11T10:20:46.931Z,66.11
2019-03-11T10:23:17.364Z,66.02
2019-03-11T10:25:47.797Z,66.99
2019-03-11T10:28:18.553Z,66.35
2019-03-11T10:30:53.455Z,66.35
2019-03-11T10:33:23.855Z,66.51
2019-03-11T10:35:54.310Z,66.51
2019-03-11T10:38:24.780Z,66.50
2019-03-11T10:40:55.514Z,67.37
2019-03-11T10:43:26.334Z,66.87
2019-03-11T10:45:56.772Z,67.03
2019-03-11T10:48:36.687Z,67.03
2019-03-11T10:50:59.482Z,66.31
2019-03-11T10:53:30.291Z,66.31
2019-03-11T10:56:00.859Z,66.19
2019-03-11T10:58:33.029Z,66.98
2019-03-11T11:01:09.753Z,66.20
2019-03-11T11:03:49.336Z,66.06
2019-03-11T11:06:22.976Z,65.56
2019-03-11T11:08:53.515Z,65.10
2019-03-11T11:11:24.043Z,64.16
2019-03-11T11:13:54.612Z,61.86
2019-03-11T11:16:26.195Z,60.88
2019-03-11T11:19:13.747Z,61.55
2019-03-11T11:21:41.015Z,61.51
2019-03-11T11:24:12.177Z,62.14
2019-03-11T11:26:43.442Z,62.23
2019-03-11T11:29:13.982Z,62.24
2019-03-11T11:31:44.582Z,61.81
2019-03-11T11:34:25.739Z,62.06
2019-03-11T11:36:56.251Z,62.00
2019-03-11T11:39:26.824Z,60.18
2019-03-11T11:41:57.316Z,60.06
2019-03-11T11:44:28.898Z,59.96
2019-03-11T11:46:59.337Z,60.35
2019-03-11T11:49:29.832Z,60.10
2019-03-11T11:52:00.255Z,59.08
2019-03-11T11:54:30.634Z,58.54
2019-03-11T11:57:01.071Z,58.71
2019-03-11T11:59:33.638Z,59.72
2019-03-11T12:02:04.436Z,60.65
2019-03-11T12:04:35.066Z,61.04
2019-03-11T12:07:05.596Z,61.86
2019-03-11T12:09:36.124Z,61.65
2019-03-11T12:12:06.587Z,61.46
2019-03-11T12:14:37.103Z,60.42
2019-03-11T12:17:07.538Z,59.12
2019-03-11T12:19:38.031Z,59.14
2019-03-11T12:22:08.354Z,57.69
2019-03-11T12:24:39.818Z,57.26
2019-03-11T12:27:10.557Z,58.23
2019-03-11T12:29:43.488Z,57.65
2019-03-11T12:32:17.440Z,56.98
2019-03-11T12:34:47.854Z,56.05
2019-03-11T12:37:18.230Z,55.46
2019-03-11T12:39:49.655Z,52.78
2019-03-11T12:42:29.886Z,48.75
2019-03-11T12:45:05.067Z,48.37
2019-03-11T12:47:40.899Z,45.70
2019-03-11T12:50:26.880Z,45.20
2019-03-11T12:53:00.139Z,46.65
2019-03-11T12:55:45.879Z,49.66
2019-03-11T12:58:16.427Z,51.08
2019-03-11T13:00:46.822Z,52.09
2019-03-11T13:03:17.279Z,52.93
2019-03-11T13:05:47.791Z,53.99
2019-03-11T13:08:18.329Z,53.85
2019-03-11T13:10:48.691Z,56.61
2019-03-11T13:13:19.364Z,55.29
2019-03-11T13:15:51.567Z,54.07
2019-03-11T13:18:32.989Z,54.06
2019-03-11T13:21:14.950Z,53.96
2019-03-11T13:23:45.461Z,52.78
2019-03-11T13:26:15.856Z,51.65
2019-03-11T13:28:47.772Z,47.52
2019-03-11T13:31:18.638Z,48.00
2019-03-11T13:33:50.709Z,47.19
2019-03-11T13:36:21.100Z,45.44
2019-03-11T13:38:51.428Z,45.57
2019-03-11T13:41:23.065Z,46.01
2019-03-11T13:43:57.195Z,46.71
2019-03-11T13:46:31.883Z,47.08
2019-03-11T13:49:09.888Z,47.59
2019-03-11T13:51:45.008Z,48.66
2019-03-11T13:54:16.920Z,49.18
2019-03-11T13:56:47.268Z,50.97
2019-03-11T13:59:18.926Z,50.97
2019-03-11T14:01:49.283Z,52.40
2019-03-11T14:04:19.577Z,52.43
2019-03-11T14:06:49.953Z,52.33
2019-03-11T14:09:21.998Z,52.33
2019-03-11T14:11:52.533Z,53.63
2019-03-11T14:14:23.186Z,53.40
2019-03-11T14:16:57.955Z,53.39
2019-03-11T14:19:30.084Z,53.44
2019-03-11T14:22:02.157Z,53.46
2019-03-11T14:24:32.992Z,54.19
2019-03-11T14:27:03.851Z,54.24
2019-03-11T14:29:34.191Z,54.31
2019-03-11T14:32:05.169Z,54.52
2019-03-11T14:34:35.548Z,54.89
2019-03-11T14:37:05.919Z,55.05
2019-03-11T14:39:36.219Z,55.98
2019-03-11T14:42:06.586Z,56.41
2019-03-11T14:44:36.896Z,56.81
2019-03-11T14:47:08.251Z,57.78
2019-03-11T14:49:40.146Z,58.19
2019-03-11T14:52:11.978Z,58.53
2019-03-11T14:54:42.387Z,58.00
2019-03-11T14:57:13.064Z,56.45
2019-03-11T14:59:43.359Z,56.45
2019-03-11T15:02:13.745Z,55.36
2019-03-11T15:04:44.249Z,55.50
2019-03-11T15:07:14.624Z,55.67
2019-03-11T15:09:51.397Z,55.78
2019-03-11T15:12:18.296Z,54.47
2019-03-11T15:14:48.651Z,54.10
2019-03-11T15:17:19.010Z,53.05
2019-03-11T15:19:49.410Z,53.26
2019-03-11T15:22:22.186Z,51.82
2019-03-11T15:24:52.008Z,52.04
2019-03-11T15:27:22.490Z,51.74
2019-03-11T15:29:52.883Z,50.16
2019-03-11T15:32:24.247Z,50.48
2019-03-11T15:34:54.557Z,50.54
2019-03-11T15:37:24.952Z,50.23
2019-03-11T15:39:55.355Z,50.32
2019-03-11T15:42:25.771Z,49.98
2019-03-11T15:44:56.122Z,50.07
2019-03-11T15:47:27.464Z,49.49
2019-03-11T15:49:57.792Z,49.11
2019-03-11T15:52:28.289Z,50.25
2019-03-11T15:54:58.644Z,49.77
2019-03-11T15:57:38.754Z,49.43
2019-03-11T16:00:01.124Z,50.26
2019-03-11T16:02:31.579Z,49.75
2019-03-11T16:05:01.930Z,49.99
2019-03-11T16:07:32.329Z,50.13
2019-03-11T16:10:02.656Z,50.83
2019-03-11T16:12:33.091Z,51.06
2019-03-11T16:15:03.430Z,50.26
2019-03-11T16:17:33.792Z,50.74
2019-03-11T16:20:05.576Z,51.02
2019-03-11T16:22:36.518Z,50.66
2019-03-11T16:25:09.349Z,50.95
2019-03-11T16:27:39.764Z,51.54
2019-03-11T16:30:18.973Z,51.33
2019-03-11T16:32:59.121Z,51.20
2019-03-11T16:35:22.885Z,51.52
2019-03-11T16:37:53.355Z,51.92
2019-03-11T16:40:23.683Z,51.98
2019-03-11T16:42:53.973Z,52.76
2019-03-11T16:45:24.386Z,52.58
2019-03-11T16:47:55.700Z,52.51
2019-03-11T16:50:27.140Z,52.57
2019-03-11T16:52:57.529Z,52.75
2019-03-11T16:55:29.423Z,52.98
2019-03-11T16:57:59.797Z,52.53
2019-03-11T17:00:31.790Z,52.84
2019-03-11T17:03:02.190Z,52.73
2019-03-11T17:05:32.541Z,52.82
2019-03-11T17:08:02.943Z,53.37
2019-03-11T17:10:33.265Z,52.63
2019-03-11T17:13:03.767Z,52.64
2019-03-11T17:15:34.214Z,52.91
2019-03-11T17:18:04.591Z,53.04
2019-03-11T17:20:34.930Z,52.59
2019-03-11T17:23:05.420Z,53.40
2019-03-11T17:25:35.787Z,53.40
2019-03-11T17:28:06.215Z,52.65
2019-03-11T17:30:36.574Z,52.29
2019-03-11T17:33:06.955Z,52.74
2019-03-11T17:35:37.826Z,52.72
2019-03-11T17:38:08.308Z,52.31
2019-03-11T17:40:38.882Z,52.16
2019-03-11T17:43:09.314Z,52.21
2019-03-11T17:45:39.689Z,52.27
2019-03-11T17:48:11.075Z,52.36
2019-03-11T17:50:41.490Z,52.53
2019-03-11T17:53:19.813Z,52.43
2019-03-11T17:55:44.229Z,52.80
2019-03-11T17:58:14.635Z,52.86
2019-03-11T18:00:55.130Z,52.80
2019-03-11T18:03:18.511Z,53.15
2019-03-11T18:05:48.867Z,53.48
2019-03-11T18:08:19.290Z,53.01
2019-03-11T18:10:49.669Z,53.29
2019-03-11T18:13:20.075Z,53.38
2019-03-11T18:15:50.438Z,53.50
2019-03-11T18:18:20.842Z,53.33
2019-03-11T18:20:51.213Z,53.87
2019-03-11T18:23:21.652Z,54.29
2019-03-11T18:25:52.036Z,53.76
2019-03-11T18:28:22.419Z,53.32
2019-03-11T18:30:52.855Z,53.13
2019-03-11T18:33:23.297Z,53.14
2019-03-11T18:35:53.633Z,53.51
2019-03-11T18:38:24.168Z,53.39
2019-03-11T18:40:54.711Z,54.36
2019-03-11T18:43:25.224Z,53.80
2019-03-11T18:45:55.676Z,54.25
2019-03-11T18:48:26.286Z,54.19
2019-03-11T18:50:56.767Z,54.64
2019-03-11T18:53:27.385Z,54.25
2019-03-11T18:55:57.820Z,54.08
2019-03-11T18:58:28.242Z,54.03
2019-03-11T19:00:58.653Z,53.81
2019-03-11T19:03:29.218Z,54.30
2019-03-11T19:05:59.712Z,54.08
2019-03-11T19:08:30.174Z,54.87
2019-03-11T19:11:00.687Z,55.61
2019-03-11T19:13:31.171Z,54.50
2019-03-11T19:16:01.790Z,54.43
2019-03-11T19:18:32.262Z,54.99
2019-03-11T19:21:02.685Z,54.34
2019-03-11T19:23:33.185Z,54.85
2019-03-11T19:26:03.559Z,54.51
2019-03-11T19:28:34.027Z,54.53
2019-03-11T19:31:04.566Z,54.51
2019-03-11T19:33:35.141Z,55.08
2019-03-11T19:36:05.688Z,54.39
2019-03-11T19:38:36.213Z,54.50
2019-03-11T19:41:06.718Z,55.06
2019-03-11T19:43:37.261Z,55.29
2019-03-11T19:46:07.768Z,55.08
2019-03-11T19:48:39.301Z,54.78
2019-03-11T19:51:09.678Z,54.92
2019-03-11T19:53:40.078Z,54.88
2019-03-11T19:56:10.496Z,54.98
2019-03-11T19:58:40.927Z,54.36
2019-03-11T20:01:11.351Z,55.49
2019-03-11T20:03:41.871Z,54.18
2019-03-11T20:06:12.278Z,54.17
2019-03-11T20:08:42.633Z,53.96
2019-03-11T20:11:13.073Z,53.52
2019-03-11T20:13:43.522Z,54.04
2019-03-11T20:16:13.965Z,53.66
2019-03-11T20:18:44.564Z,53.36
2019-03-11T20:21:16.394Z,53.74
2019-03-11T20:23:46.801Z,53.19
2019-03-11T20:26:18.647Z,52.81
2019-03-11T20:28:49.416Z,52.84
2019-03-11T20:31:19.796Z,52.76
2019-03-11T20:33:50.258Z,52.75
2019-03-11T20:36:21.594Z,53.76
2019-03-11T20:38:52.108Z,52.46
2019-03-11T20:41:22.532Z,52.81
2019-03-11T20:43:52.931Z,51.98
2019-03-11T20:46:23.259Z,51.72
2019-03-11T20:48:53.864Z,52.16
2019-03-11T20:51:24.304Z,52.24
2019-03-11T20:53:54.739Z,52.34
2019-03-11T20:56:25.174Z,52.05
2019-03-11T20:58:55.540Z,52.03
2019-03-11T21:01:25.842Z,52.17
2019-03-11T21:03:56.281Z,52.77
2019-03-11T21:06:26.625Z,52.59
2019-03-11T21:08:57.027Z,52.48
2019-03-11T21:11:27.455Z,52.96
2019-03-11T21:13:57.882Z,52.99
2019-03-11T21:16:28.205Z,53.63
2019-03-11T21:18:58.694Z,53.64
2019-03-11T21:21:29.198Z,53.46
2019-03-11T21:24:02.209Z,53.47
2019-03-11T21:26:31.684Z,53.73
2019-03-11T21:29:02.380Z,53.32
2019-03-11T21:31:32.872Z,53.58
2019-03-11T21:34:03.347Z,53.64
2019-03-11T21:36:33.801Z,53.87
2019-03-11T21:39:05.372Z,54.12
2019-03-11T21:41:35.803Z,54.63
2019-03-11T21:44:06.206Z,54.81
2019-03-11T21:46:36.701Z,55.13
2019-03-11T21:49:08.331Z,55.62
2019-03-11T21:51:38.882Z,54.93
2019-03-11T21:54:09.425Z,54.69
2019-03-11T21:56:39.880Z,55.70
2019-03-11T21:59:10.726Z,54.40
2019-03-11T22:01:41.310Z,54.98
2019-03-11T22:04:11.809Z,55.35
2019-03-11T22:06:42.274Z,54.70
2019-03-11T22:09:12.750Z,55.27
2019-03-11T22:11:43.255Z,56.04
2019-03-11T22:14:13.783Z,56.86
2019-03-11T22:16:44.159Z,55.47
2019-03-11T22:19:14.539Z,56.04
2019-03-11T22:21:44.906Z,56.31
2019-03-11T22:24:15.269Z,55.91
2019-03-11T22:26:45.755Z,56.57
2019-03-11T22:29:16.149Z,56.42
2019-03-11T22:31:46.513Z,56.58
2019-03-11T22:34:17.033Z,56.81
2019-03-11T22:36:47.431Z,57.50
2019-03-11T22:39:17.828Z,57.60
2019-03-11T22:41:52.608Z,57.06
2019-03-11T22:44:21.788Z,56.74
2019-03-11T22:46:52.157Z,56.66
2019-03-11T22:49:23.519Z,56.99
2019-03-11T22:51:53.860Z,57.32
2019-03-11T22:54:24.227Z,57.81
2019-03-11T22:56:54.608Z,56.92
2019-03-11T22:59:25.136Z,57.23
2019-03-11T23:01:56.081Z,57.31
2019-03-11T23:04:26.578Z,57.20
2019-03-11T23:06:57.063Z,58.36
2019-03-11T23:09:27.596Z,57.64
2019-03-11T23:11:58.038Z,57.05
2019-03-11T23:14:28.540Z,57.25
2019-03-11T23:17:00.098Z,56.96
2019-03-11T23:19:32.105Z,57.09
2019-03-11T23:22:02.544Z,57.75
2019-03-11T23:24:34.081Z,57.46
2019-03-11T23:27:04.988Z,57.74
2019-03-11T23:29:35.511Z,57.52
2019-03-11T23:32:06.990Z,58.39
2019-03-11T23:34:37.475Z,58.35
2019-03-11T23:37:08.773Z,58.43
2019-03-11T23:39:39.260Z,57.95
2019-03-11T23:42:09.791Z,58.83
2019-03-11T23:44:40.307Z,58.86
2019-03-11T23:47:10.727Z,58.60
2019-03-11T23:49:42.140Z,58.77
2019-03-11T23:52:12.530Z,59.00
2019-03-11T23:54:42.998Z,59.78
2019-03-11T23:57:13.478Z,58.88
2019-03-11T23:59:43.870Z,59.01
